createdAt,value
2023-01-20T00:01:44.053Z,83.51
2023-01-20T00:03:54.715Z,83.56
2023-01-20T00:06:04.708Z,83.36
2023-01-20T00:08:14.865Z,83.22
2023-01-20T00:10:24.835Z,82.90
2023-01-20T00:12:36.070Z,82.59
2023-01-20T00:14:46.625Z,82.14
2023-01-20T00:16:57.872Z,82.00
2023-01-20T00:19:07.875Z,81.79
2023-01-20T00:21:18.617Z,81.84
2023-01-20T00:23:28.635Z,81.83
2023-01-20T00:25:39.455Z,81.50
2023-01-20T00:27:49.504Z,81.34
2023-01-20T00:29:59.525Z,81.33
2023-01-20T00:32:09.652Z,81.59
2023-01-20T00:34:19.562Z,81.62
2023-01-20T00:36:31.584Z,81.68
2023-01-20T00:38:41.656Z,81.82
2023-01-20T00:40:57.674Z,81.85
2023-01-20T00:43:07.604Z,82.02
2023-01-20T00:45:17.707Z,82.11
2023-01-20T00:47:27.798Z,82.09
2023-01-20T00:49:37.465Z,82.13
2023-01-20T00:51:47.683Z,82.12
2023-01-20T00:53:57.791Z,82.15
2023-01-20T00:56:08.428Z,82.12
2023-01-20T00:58:18.485Z,82.08
2023-01-20T01:00:28.859Z,82.16
2023-01-20T01:02:44.478Z,82.13
2023-01-20T01:04:55.378Z,81.95
2023-01-20T01:07:05.251Z,82.16
2023-01-20T01:09:15.559Z,82.43
2023-01-20T01:11:26.305Z,82.49
2023-01-20T01:13:37.666Z,82.57
2023-01-20T01:15:53.611Z,82.79
2023-01-20T01:18:04.366Z,82.83
2023-01-20T01:20:16.141Z,82.86
2023-01-20T01:22:26.516Z,83.05
2023-01-20T01:24:36.750Z,82.99
2023-01-20T01:26:47.088Z,83.19
2023-01-20T01:28:57.126Z,83.14
2023-01-20T01:31:08.114Z,83.23
2023-01-20T01:33:18.100Z,83.40
2023-01-20T01:35:28.141Z,83.68
2023-01-20T01:37:38.275Z,83.65
2023-01-20T01:39:47.966Z,83.50
2023-01-20T01:41:57.870Z,83.64
2023-01-20T01:44:11.473Z,83.78
2023-01-20T01:46:22.056Z,83.82
2023-01-20T01:48:36.095Z,84.04
2023-01-20T01:50:49.597Z,84.09
2023-01-20T01:53:00.314Z,84.37
2023-01-20T01:55:11.705Z,84.51
2023-01-20T01:57:23.080Z,84.47
2023-01-20T01:59:33.521Z,84.57
2023-01-20T02:01:47.007Z,84.58
2023-01-20T02:04:01.097Z,84.75
2023-01-20T02:06:12.214Z,84.95
2023-01-20T02:08:22.665Z,84.99
2023-01-20T02:10:33.195Z,85.16
2023-01-20T02:12:45.536Z,85.24
2023-01-20T02:14:58.274Z,85.32
2023-01-20T02:17:16.578Z,85.21
2023-01-20T02:20:05.121Z,85.37
2023-01-20T02:22:27.225Z,85.34
2023-01-20T02:25:16.841Z,85.62
2023-01-20T02:27:43.625Z,85.60
2023-01-20T02:30:26.368Z,85.65
2023-01-20T02:32:45.713Z,85.69
2023-01-20T02:35:00.365Z,85.68
2023-01-20T02:37:16.034Z,85.92
2023-01-20T02:39:30.382Z,85.79
2023-01-20T02:41:48.308Z,85.79
2023-01-20T02:44:04.507Z,85.95
2023-01-20T02:46:18.088Z,86.00
2023-01-20T02:48:34.250Z,86.17
2023-01-20T02:50:47.178Z,86.34
2023-01-20T02:53:00.669Z,86.24
2023-01-20T02:55:16.343Z,86.47
2023-01-20T02:57:31.215Z,86.53
2023-01-20T02:59:45.159Z,86.53
2023-01-20T03:02:02.988Z,86.62
2023-01-20T03:04:16.197Z,86.75
2023-01-20T03:06:29.705Z,86.81
2023-01-20T03:08:42.740Z,86.87
2023-01-20T03:10:56.058Z,86.91
2023-01-20T03:13:14.105Z,87.13
2023-01-20T03:15:29.996Z,87.03
2023-01-20T03:17:40.376Z,87.25
2023-01-20T03:19:50.880Z,87.36
2023-01-20T03:22:00.976Z,87.23
2023-01-20T03:24:12.425Z,87.36
2023-01-20T03:26:24.154Z,87.52
2023-01-20T03:28:34.246Z,87.45
2023-01-20T03:30:44.189Z,87.55
2023-01-20T03:32:55.411Z,87.58
2023-01-20T03:35:06.247Z,87.56
2023-01-20T03:37:17.055Z,87.56
2023-01-20T03:39:28.050Z,87.69
2023-01-20T03:41:45.319Z,88.01
2023-01-20T03:44:04.954Z,88.01
2023-01-20T03:46:22.266Z,88.12
2023-01-20T03:48:40.293Z,88.06
2023-01-20T03:50:56.867Z,88.00
2023-01-20T03:53:16.995Z,88.17
2023-01-20T03:55:32.176Z,88.21
2023-01-20T03:57:47.285Z,88.24
2023-01-20T03:59:59.178Z,88.38
2023-01-20T04:02:10.763Z,88.31
2023-01-20T04:04:22.752Z,88.48
2023-01-20T04:06:35.446Z,88.50
2023-01-20T04:08:50.339Z,88.47
2023-01-20T04:11:03.256Z,88.48
2023-01-20T04:13:13.386Z,88.49
2023-01-20T04:15:25.760Z,88.51
2023-01-20T04:17:35.769Z,88.49
2023-01-20T04:19:45.759Z,88.51
2023-01-20T04:22:02.643Z,88.50
2023-01-20T04:24:19.507Z,88.61
2023-01-20T04:26:29.610Z,88.64
2023-01-20T04:28:39.416Z,88.64
2023-01-20T04:30:49.961Z,88.72
2023-01-20T04:32:59.716Z,88.79
2023-01-20T04:35:11.803Z,88.74
2023-01-20T04:37:22.295Z,88.67
2023-01-20T04:39:32.546Z,88.92
2023-01-20T04:41:43.302Z,88.87
2023-01-20T04:43:53.246Z,88.96
2023-01-20T04:46:04.596Z,88.90
2023-01-20T04:48:15.085Z,89.07
2023-01-20T04:50:24.979Z,89.10
2023-01-20T04:52:35.329Z,89.16
2023-01-20T04:54:45.591Z,89.20
2023-01-20T04:56:55.695Z,89.20
2023-01-20T04:59:05.684Z,89.44
2023-01-20T05:01:16.051Z,89.56
2023-01-20T05:03:26.046Z,89.51
2023-01-20T05:05:35.786Z,89.59
2023-01-20T05:07:45.733Z,89.70
2023-01-20T05:09:55.756Z,89.72
2023-01-20T05:12:06.040Z,89.78
2023-01-20T05:14:16.813Z,89.75
2023-01-20T05:16:32.440Z,89.87
2023-01-20T05:18:42.400Z,89.89
2023-01-20T05:20:52.855Z,90.07
2023-01-20T05:23:02.603Z,90.08
2023-01-20T05:25:13.832Z,90.02
2023-01-20T05:27:24.025Z,90.13
2023-01-20T05:29:34.800Z,89.99
2023-01-20T05:31:44.810Z,89.99
2023-01-20T05:33:54.857Z,90.11
2023-01-20T05:36:09.194Z,90.01
2023-01-20T05:38:19.225Z,90.13
2023-01-20T05:40:29.238Z,90.26
2023-01-20T05:42:39.666Z,90.20
2023-01-20T05:44:49.976Z,90.12
2023-01-20T05:46:59.914Z,90.30
2023-01-20T05:49:12.302Z,90.30
2023-01-20T05:51:22.318Z,90.28
2023-01-20T05:53:32.718Z,90.11
2023-01-20T05:55:43.416Z,90.00
2023-01-20T05:57:53.601Z,90.24
2023-01-20T06:00:03.605Z,90.15
2023-01-20T06:02:19.170Z,89.99
2023-01-20T06:04:29.110Z,90.22
2023-01-20T06:06:39.723Z,90.23
2023-01-20T06:08:50.138Z,90.11
2023-01-20T06:10:59.856Z,90.23
2023-01-20T06:13:10.269Z,90.04
2023-01-20T06:15:21.068Z,90.08
2023-01-20T06:17:31.080Z,90.36
2023-01-20T06:19:40.948Z,90.48
2023-01-20T06:21:50.966Z,90.55
2023-01-20T06:24:00.789Z,90.72
2023-01-20T06:26:14.770Z,90.65
2023-01-20T06:28:24.636Z,90.70
2023-01-20T06:30:34.538Z,90.88
2023-01-20T06:32:44.247Z,90.90
2023-01-20T06:34:53.975Z,90.95
2023-01-20T06:37:03.775Z,90.85
2023-01-20T06:39:13.546Z,91.10
2023-01-20T06:41:24.156Z,91.12
2023-01-20T06:43:35.544Z,91.04
2023-01-20T06:45:45.742Z,91.09
2023-01-20T06:47:55.615Z,91.14
2023-01-20T06:50:05.679Z,91.16
2023-01-20T06:52:15.626Z,91.15
2023-01-20T06:54:25.687Z,91.07
2023-01-20T06:56:35.877Z,91.04
2023-01-20T06:58:46.585Z,91.10
2023-01-20T07:00:57.468Z,91.14
2023-01-20T07:03:07.573Z,91.25
2023-01-20T07:05:17.392Z,91.29
2023-01-20T07:07:27.506Z,91.18
2023-01-20T07:09:38.198Z,91.14
2023-01-20T07:11:48.806Z,91.09
2023-01-20T07:13:58.523Z,91.19
2023-01-20T07:16:10.978Z,91.24
2023-01-20T07:18:22.105Z,91.17
2023-01-20T07:20:31.906Z,91.06
2023-01-20T07:22:42.375Z,91.03
2023-01-20T07:24:52.117Z,91.19
2023-01-20T07:27:02.410Z,91.11
2023-01-20T07:29:12.275Z,91.00
2023-01-20T07:31:23.381Z,91.17
2023-01-20T07:33:33.087Z,91.21
2023-01-20T07:35:43.265Z,91.14
2023-01-20T07:37:53.075Z,91.11
2023-01-20T07:40:03.202Z,91.16
2023-01-20T07:42:12.751Z,91.06
2023-01-20T07:44:23.068Z,91.12
2023-01-20T07:46:33.713Z,91.11
2023-01-20T07:48:43.996Z,91.20
2023-01-20T07:50:58.294Z,91.39
2023-01-20T07:53:09.007Z,91.31
2023-01-20T07:55:19.347Z,91.27
2023-01-20T07:57:30.544Z,91.10
2023-01-20T07:59:40.396Z,91.33
2023-01-20T08:01:50.382Z,91.33
2023-01-20T08:04:02.075Z,91.42
2023-01-20T08:06:14.394Z,91.42
2023-01-20T08:08:25.038Z,91.45
2023-01-20T08:10:35.151Z,91.43
2023-01-20T08:12:45.185Z,91.64
2023-01-20T08:14:55.099Z,91.60
2023-01-20T08:17:05.181Z,91.43
2023-01-20T08:19:15.117Z,91.16
2023-01-20T08:21:27.180Z,91.20
2023-01-20T08:23:38.025Z,91.08
2023-01-20T08:25:47.856Z,91.21
2023-01-20T08:27:58.150Z,91.43
2023-01-20T08:30:09.211Z,91.36
2023-01-20T08:32:19.516Z,91.42
2023-01-20T08:34:29.860Z,91.43
2023-01-20T08:36:42.031Z,91.57
2023-01-20T08:38:52.579Z,91.41
2023-01-20T08:41:02.229Z,91.47
2023-01-20T08:43:12.368Z,91.45
2023-01-20T08:45:22.872Z,91.49
2023-01-20T08:47:32.765Z,91.55
2023-01-20T08:49:42.539Z,91.51
2023-01-20T08:51:52.626Z,91.57
2023-01-20T08:54:03.120Z,91.48
2023-01-20T08:56:13.979Z,91.18
2023-01-20T08:58:25.443Z,90.70
2023-01-20T09:00:36.675Z,90.50
2023-01-20T09:02:47.226Z,90.36
2023-01-20T09:04:57.667Z,90.32
2023-01-20T09:07:08.375Z,90.40
2023-01-20T09:09:20.087Z,90.26
2023-01-20T09:11:30.408Z,90.26
2023-01-20T09:13:40.599Z,90.15
2023-01-20T09:15:55.453Z,90.39
2023-01-20T09:18:05.587Z,90.69
2023-01-20T09:20:17.394Z,90.93
2023-01-20T09:22:27.275Z,91.22
2023-01-20T09:24:37.371Z,91.69
2023-01-20T09:26:47.485Z,91.69
2023-01-20T09:28:57.245Z,91.65
2023-01-20T09:31:09.060Z,91.66
2023-01-20T09:33:19.136Z,91.70
2023-01-20T09:35:28.844Z,91.81
2023-01-20T09:37:55.790Z,91.73
2023-01-20T09:40:22.850Z,91.88
2023-01-20T09:42:59.620Z,91.94
2023-01-20T09:45:25.574Z,92.14
2023-01-20T09:47:40.546Z,92.53
2023-01-20T09:50:20.712Z,92.67
2023-01-20T09:52:52.668Z,92.59
2023-01-20T09:55:07.720Z,92.79
2023-01-20T09:57:22.311Z,92.91
2023-01-20T09:59:38.817Z,92.81
2023-01-20T10:01:50.987Z,92.82
2023-01-20T10:04:07.287Z,92.92
2023-01-20T10:06:27.067Z,92.76
2023-01-20T10:08:43.175Z,92.82
2023-01-20T10:11:02.545Z,92.59
2023-01-20T10:13:20.215Z,92.62
2023-01-20T10:15:32.095Z,92.58
2023-01-20T10:17:48.477Z,92.53
2023-01-20T10:20:04.696Z,92.46
2023-01-20T10:22:20.087Z,92.46
2023-01-20T10:24:34.677Z,92.40
2023-01-20T10:26:50.965Z,92.59
2023-01-20T10:29:04.258Z,92.68
2023-01-20T10:31:16.885Z,92.72
2023-01-20T10:33:32.046Z,92.80
2023-01-20T10:35:45.316Z,92.86
2023-01-20T10:37:56.803Z,93.01
2023-01-20T10:40:18.470Z,92.93
2023-01-20T10:42:29.135Z,92.97
2023-01-20T10:44:39.701Z,93.06
2023-01-20T10:47:00.917Z,93.09
2023-01-20T10:49:42.485Z,93.34
2023-01-20T10:52:06.946Z,93.27
2023-01-20T10:54:28.805Z,93.20
2023-01-20T10:56:53.828Z,93.27
2023-01-20T10:59:09.370Z,93.25
2023-01-20T11:01:20.864Z,93.22
2023-01-20T11:03:35.076Z,93.17
2023-01-20T11:05:45.766Z,93.06
2023-01-20T11:07:58.271Z,93.09
2023-01-20T11:10:19.145Z,93.14
2023-01-20T11:12:37.398Z,93.05
2023-01-20T11:14:48.167Z,93.06
2023-01-20T11:17:04.879Z,93.03
2023-01-20T11:19:15.027Z,92.90
2023-01-20T11:21:28.163Z,93.11
2023-01-20T11:23:44.416Z,93.12
2023-01-20T11:26:00.645Z,92.86
2023-01-20T11:28:20.343Z,92.68
2023-01-20T11:30:33.219Z,92.71
2023-01-20T11:32:45.678Z,92.62
2023-01-20T11:34:56.418Z,92.59
2023-01-20T11:37:25.991Z,92.77
2023-01-20T11:39:44.331Z,92.74
2023-01-20T11:42:16.913Z,92.65
2023-01-20T11:44:27.440Z,92.66
2023-01-20T11:46:38.967Z,92.59
2023-01-20T11:48:48.669Z,92.48
2023-01-20T11:51:03.977Z,92.51
2023-01-20T11:53:25.286Z,92.65
2023-01-20T11:55:44.977Z,92.66
2023-01-20T11:57:58.473Z,92.83
2023-01-20T12:00:30.218Z,92.63
2023-01-20T12:02:41.944Z,92.70
2023-01-20T12:05:13.527Z,92.60
2023-01-20T12:07:29.905Z,92.49
2023-01-20T12:09:43.877Z,92.42
2023-01-20T12:11:58.536Z,92.69
2023-01-20T12:14:23.887Z,92.63
2023-01-20T12:16:35.138Z,92.73
2023-01-20T12:19:01.945Z,92.72
2023-01-20T12:21:18.823Z,92.83
2023-01-20T12:23:46.506Z,92.74
2023-01-20T12:25:59.816Z,92.51
2023-01-20T12:28:16.419Z,92.62
2023-01-20T12:30:58.097Z,92.78
2023-01-20T12:33:13.820Z,92.74
2023-01-20T12:35:30.931Z,92.60
2023-01-20T12:37:50.018Z,92.57
2023-01-20T12:40:17.621Z,92.44
2023-01-20T12:42:55.505Z,92.50
2023-01-20T12:45:14.167Z,92.34
2023-01-20T12:47:41.405Z,92.40
2023-01-20T12:50:08.055Z,92.44
2023-01-20T12:52:44.083Z,92.39
2023-01-20T12:55:17.449Z,92.34
2023-01-20T12:57:43.900Z,92.14
2023-01-20T13:00:03.593Z,92.14
2023-01-20T13:02:39.199Z,91.80
2023-01-20T13:05:16.738Z,91.88
2023-01-20T13:07:51.131Z,91.95
2023-01-20T13:10:28.186Z,91.81
2023-01-20T13:12:48.847Z,91.85
2023-01-20T13:15:04.527Z,92.16
2023-01-20T13:17:21.552Z,92.31
2023-01-20T13:19:35.375Z,92.36
2023-01-20T13:21:46.089Z,92.42
2023-01-20T13:24:00.937Z,92.63
2023-01-20T13:26:11.567Z,92.75
2023-01-20T13:28:24.074Z,92.62
2023-01-20T13:30:52.185Z,92.67
2023-01-20T13:33:08.890Z,92.68
2023-01-20T13:35:46.931Z,92.62
2023-01-20T13:37:58.198Z,92.50
2023-01-20T13:40:23.145Z,92.58
2023-01-20T13:42:50.645Z,92.60
2023-01-20T13:45:18.398Z,92.69
2023-01-20T13:47:55.192Z,92.63
2023-01-20T13:50:26.134Z,92.70
2023-01-20T13:53:14.663Z,92.45
2023-01-20T13:55:51.770Z,92.32
2023-01-20T13:58:01.998Z,92.17
2023-01-20T14:00:23.405Z,92.26
2023-01-20T14:02:40.131Z,92.21
2023-01-20T14:04:52.067Z,92.17
2023-01-20T14:07:05.136Z,92.11
2023-01-20T14:09:23.040Z,92.10
2023-01-20T14:11:33.575Z,92.12
2023-01-20T14:13:43.644Z,92.17
2023-01-20T14:15:56.396Z,92.01
2023-01-20T14:18:04.503Z,92.03
2023-01-20T14:20:25.173Z,92.12
2023-01-20T14:22:35.907Z,92.02
2023-01-20T14:24:49.659Z,92.01
2023-01-20T14:27:17.111Z,92.18
2023-01-20T14:29:30.191Z,92.39
2023-01-20T14:31:45.853Z,92.61
2023-01-20T14:34:04.141Z,92.55
2023-01-20T14:36:19.372Z,92.51
2023-01-20T14:38:29.227Z,92.44
2023-01-20T14:40:40.745Z,92.44
2023-01-20T14:42:58.786Z,92.21
2023-01-20T14:45:23.183Z,92.21
2023-01-20T14:47:35.385Z,92.05
2023-01-20T14:49:48.508Z,92.22
2023-01-20T14:51:59.291Z,92.18
2023-01-20T14:54:43.986Z,92.22
2023-01-20T14:56:54.807Z,92.32
2023-01-20T14:59:05.205Z,92.48
2023-01-20T15:01:25.683Z,92.42
2023-01-20T15:03:36.568Z,92.18
2023-01-20T15:05:58.642Z,92.03
2023-01-20T15:08:26.110Z,92.02
2023-01-20T15:10:36.556Z,91.80
2023-01-20T15:12:56.825Z,91.61
2023-01-20T15:15:21.216Z,91.75
2023-01-20T15:17:31.125Z,91.74
2023-01-20T15:19:46.507Z,91.98
2023-01-20T15:21:58.110Z,92.20
2023-01-20T15:24:17.510Z,92.28
2023-01-20T15:26:31.117Z,92.22
2023-01-20T15:28:44.364Z,92.30
2023-01-20T15:30:54.636Z,92.48
2023-01-20T15:33:04.646Z,92.55
2023-01-20T15:35:20.472Z,92.63
2023-01-20T15:37:30.476Z,92.54
2023-01-20T15:39:40.459Z,92.44
2023-01-20T15:41:57.755Z,92.17
2023-01-20T15:44:07.677Z,92.25
2023-01-20T15:46:18.611Z,92.21
2023-01-20T15:48:28.687Z,92.14
2023-01-20T15:50:38.486Z,92.17
2023-01-20T15:52:48.669Z,92.34
2023-01-20T15:54:58.566Z,92.25
2023-01-20T15:57:14.815Z,92.51
2023-01-20T15:59:26.405Z,92.25
2023-01-20T16:01:36.190Z,92.29
2023-01-20T16:03:46.196Z,92.21
2023-01-20T16:05:58.075Z,92.34
2023-01-20T16:08:14.376Z,92.48
2023-01-20T16:10:24.135Z,92.43
2023-01-20T16:12:34.299Z,92.51
2023-01-20T16:14:44.581Z,92.36
2023-01-20T16:16:54.398Z,92.47
2023-01-20T16:19:05.320Z,92.75
2023-01-20T16:21:16.836Z,92.88
2023-01-20T16:23:26.919Z,93.05
2023-01-20T16:25:36.839Z,93.24
2023-01-20T16:27:46.580Z,93.45
2023-01-20T16:29:56.947Z,93.42
2023-01-20T16:32:07.905Z,93.54
2023-01-20T16:34:18.049Z,93.58
2023-01-20T16:36:28.496Z,93.61
2023-01-20T16:38:38.735Z,93.61
2023-01-20T16:40:53.595Z,93.77
2023-01-20T16:43:03.736Z,93.90
2023-01-20T16:45:29.101Z,93.93
2023-01-20T16:47:39.260Z,93.80
2023-01-20T16:49:50.175Z,93.83
2023-01-20T16:52:00.859Z,93.89
2023-01-20T16:54:11.205Z,93.84
2023-01-20T16:56:22.339Z,93.86
2023-01-20T16:58:32.540Z,93.83
2023-01-20T17:00:43.132Z,94.03
2023-01-20T17:02:55.157Z,94.02
2023-01-20T17:05:05.228Z,94.14
2023-01-20T17:07:15.585Z,94.28
2023-01-20T17:09:26.348Z,94.41
2023-01-20T17:11:38.855Z,94.66
2023-01-20T17:13:48.716Z,94.96
2023-01-20T17:15:59.601Z,95.03
2023-01-20T17:18:10.915Z,95.16
2023-01-20T17:20:21.156Z,95.26
2023-01-20T17:22:30.809Z,95.22
2023-01-20T17:24:40.806Z,95.36
2023-01-20T17:26:50.816Z,95.62
2023-01-20T17:29:02.759Z,95.69
2023-01-20T17:31:12.528Z,95.50
2023-01-20T17:33:22.980Z,95.71
2023-01-20T17:35:33.466Z,95.71
2023-01-20T17:37:43.180Z,95.91
2023-01-20T17:39:53.265Z,96.04
2023-01-20T17:42:03.219Z,96.17
2023-01-20T17:44:14.387Z,96.25
2023-01-20T17:46:25.789Z,96.28
2023-01-20T17:48:35.719Z,96.46
2023-01-20T17:50:46.277Z,96.45
2023-01-20T17:52:56.636Z,96.35
2023-01-20T17:55:06.395Z,96.46
2023-01-20T17:57:16.607Z,96.38
2023-01-20T17:59:27.288Z,96.43
2023-01-20T18:01:37.121Z,96.62
2023-01-20T18:03:47.902Z,96.68
2023-01-20T18:05:59.058Z,96.73
2023-01-20T18:08:09.216Z,96.60
2023-01-20T18:10:20.258Z,96.68
2023-01-20T18:12:30.156Z,96.73
2023-01-20T18:14:40.038Z,96.71
2023-01-20T18:16:50.697Z,96.68
2023-01-20T18:19:01.302Z,96.58
2023-01-20T18:21:16.443Z,96.50
2023-01-20T18:23:26.737Z,96.59
2023-01-20T18:25:36.487Z,96.47
2023-01-20T18:27:46.324Z,96.42
2023-01-20T18:29:56.379Z,96.34
2023-01-20T18:32:06.497Z,96.40
2023-01-20T18:34:17.948Z,96.27
2023-01-20T18:36:30.185Z,96.14
2023-01-20T18:38:43.577Z,96.08
2023-01-20T18:40:53.903Z,96.10
2023-01-20T18:43:03.517Z,95.91
2023-01-20T18:45:15.077Z,95.87
2023-01-20T18:47:25.488Z,96.01
2023-01-20T18:49:35.609Z,95.91
2023-01-20T18:51:45.368Z,95.79
2023-01-20T18:54:00.569Z,95.61
2023-01-20T18:56:12.658Z,95.37
2023-01-20T18:58:23.136Z,95.15
2023-01-20T19:00:33.575Z,95.01
2023-01-20T19:02:43.717Z,94.59
2023-01-20T19:04:53.622Z,94.51
2023-01-20T19:07:03.467Z,94.21
2023-01-20T19:09:16.286Z,93.90
2023-01-20T19:11:28.433Z,93.78
2023-01-20T19:13:38.818Z,93.67
2023-01-20T19:15:48.694Z,93.23
2023-01-20T19:17:58.557Z,92.79
2023-01-20T19:20:09.855Z,92.30
2023-01-20T19:22:20.075Z,91.76
2023-01-20T19:24:31.185Z,91.31
2023-01-20T19:26:42.087Z,91.07
2023-01-20T19:28:57.680Z,90.56
2023-01-20T19:31:12.917Z,90.36
2023-01-20T19:33:22.591Z,89.81
2023-01-20T19:35:34.225Z,89.40
2023-01-20T19:37:44.395Z,89.15
2023-01-20T19:39:54.604Z,88.78
2023-01-20T19:42:04.548Z,88.65
2023-01-20T19:44:16.518Z,88.19
2023-01-20T19:46:27.404Z,88.36
2023-01-20T19:48:37.363Z,88.20
2023-01-20T19:50:47.435Z,88.17
2023-01-20T19:52:57.458Z,88.05
2023-01-20T19:55:08.379Z,87.97
2023-01-20T19:57:18.167Z,87.87
2023-01-20T19:59:28.026Z,87.96
2023-01-20T20:01:38.952Z,87.93
2023-01-20T20:03:49.276Z,88.19
2023-01-20T20:05:58.977Z,88.37
2023-01-20T20:08:09.516Z,88.19
2023-01-20T20:10:20.145Z,88.37
2023-01-20T20:12:29.777Z,88.04
2023-01-20T20:14:40.232Z,87.74
2023-01-20T20:16:50.615Z,87.63
2023-01-20T20:19:01.952Z,87.51
2023-01-20T20:21:12.408Z,87.57
2023-01-20T20:23:23.357Z,86.64
2023-01-20T20:25:38.126Z,86.24
2023-01-20T20:27:47.996Z,86.04
2023-01-20T20:30:01.902Z,86.01
2023-01-20T20:32:12.365Z,85.86
2023-01-20T20:34:23.043Z,85.70
2023-01-20T20:36:34.385Z,85.75
2023-01-20T20:38:45.477Z,85.46
2023-01-20T20:41:00.274Z,85.50
2023-01-20T20:43:10.248Z,85.07
2023-01-20T20:45:20.851Z,84.74
2023-01-20T20:47:30.769Z,84.50
2023-01-20T20:49:40.445Z,84.33
2023-01-20T20:51:50.437Z,82.88
2023-01-20T20:54:01.760Z,83.24
2023-01-20T20:56:16.531Z,83.78
2023-01-20T20:58:26.756Z,82.73
2023-01-20T21:00:36.620Z,82.61
2023-01-20T21:02:47.122Z,81.84
2023-01-20T21:04:57.826Z,81.56
2023-01-20T21:07:07.777Z,81.85
2023-01-20T21:09:17.836Z,81.15
2023-01-20T21:11:28.356Z,81.29
2023-01-20T21:13:38.827Z,80.99
2023-01-20T21:16:00.172Z,80.82
2023-01-20T21:18:10.205Z,80.05
2023-01-20T21:20:20.658Z,80.28
2023-01-20T21:22:30.628Z,80.17
2023-01-20T21:24:41.077Z,79.72
2023-01-20T21:26:50.917Z,79.73
2023-01-20T21:29:02.414Z,79.88
2023-01-20T21:31:13.731Z,79.58
2023-01-20T21:33:24.219Z,79.52
2023-01-20T21:35:34.136Z,79.24
2023-01-20T21:37:43.839Z,79.28
2023-01-20T21:39:53.881Z,79.12
2023-01-20T21:42:06.568Z,78.16
2023-01-20T21:44:33.526Z,78.07
2023-01-20T21:46:43.959Z,78.44
2023-01-20T21:49:11.370Z,79.01
2023-01-20T21:51:38.898Z,79.06
2023-01-20T21:53:48.772Z,79.12
2023-01-20T21:55:58.978Z,78.64
2023-01-20T21:58:10.836Z,78.67
2023-01-20T22:00:22.557Z,78.22
2023-01-20T22:02:32.859Z,78.08
2023-01-20T22:04:42.788Z,77.58
2023-01-20T22:06:52.576Z,76.97
2023-01-20T22:09:02.538Z,77.45
2023-01-20T22:11:12.318Z,77.68
2023-01-20T22:13:22.106Z,77.25
2023-01-20T22:15:32.087Z,77.00
2023-01-20T22:17:42.180Z,78.02
2023-01-20T22:19:52.567Z,78.22
2023-01-20T22:22:04.025Z,77.26
2023-01-20T22:24:15.095Z,76.58
2023-01-20T22:26:25.648Z,75.55
2023-01-20T22:28:40.237Z,74.18
2023-01-20T22:30:50.518Z,75.63
2023-01-20T22:33:00.886Z,74.63
2023-01-20T22:35:12.086Z,74.81
2023-01-20T22:37:23.957Z,73.28
2023-01-20T22:39:34.146Z,73.06
2023-01-20T22:41:44.798Z,72.48
2023-01-20T22:43:56.235Z,72.20
2023-01-20T22:46:07.182Z,72.18
2023-01-20T22:48:17.237Z,71.54
2023-01-20T22:50:27.330Z,71.34
2023-01-20T22:52:37.185Z,70.28
2023-01-20T22:54:46.888Z,71.35
2023-01-20T22:56:57.427Z,70.78
2023-01-20T22:59:07.482Z,71.26
2023-01-20T23:01:18.821Z,71.94
2023-01-20T23:03:28.926Z,72.01
2023-01-20T23:05:40.895Z,71.61
2023-01-20T23:07:50.976Z,71.08
2023-01-20T23:10:00.985Z,70.23
2023-01-20T23:12:11.236Z,70.26
2023-01-20T23:14:41.462Z,69.77
2023-01-20T23:16:51.592Z,69.81
2023-01-20T23:19:02.136Z,69.60
2023-01-20T23:21:12.405Z,69.81
2023-01-20T23:23:23.089Z,69.09
2023-01-20T23:25:33.099Z,69.78
2023-01-20T23:27:43.588Z,69.94
2023-01-20T23:29:56.245Z,70.15
2023-01-20T23:32:09.649Z,69.85
2023-01-20T23:34:19.975Z,70.14
2023-01-20T23:36:30.143Z,70.36
2023-01-20T23:38:40.141Z,70.28
2023-01-20T23:40:51.983Z,70.16
2023-01-20T23:43:02.265Z,69.61
2023-01-20T23:45:13.506Z,69.96
2023-01-20T23:47:23.435Z,70.04
2023-01-20T23:49:33.665Z,70.29
2023-01-20T23:51:43.937Z,69.26
2023-01-20T23:53:54.316Z,69.03
2023-01-20T23:56:05.982Z,69.43
2023-01-20T23:58:16.188Z,69.68
